Flight Track Log - Related Links

Times and Time Zones

All times are in EDT time to prevent confusion due to time zone crossing. See the ASH3738 flight status page for this flight to view local times or setup timezone preferences in your user account.

Time Position Orientation Groundspeed Altitude Reporting Facility
EDT Latitude Longitude Course Direction KTS MPH feet Rate Location/Type
Sat 08:59:41 PM 41.9833 -87.9500 166° South 185 213 2,500  Level Chicago TRACON
Sat 09:00:41 PM 41.9167 -87.9500 180° South 282 325 4,400 1,407 Climbing Chicago TRACON
Sat 09:02:06 PM 41.8142 -87.8867 155° Southeast 290 334 5,900 1,973 Climbing Chicago Center
Sat 09:03:07 PM 41.7419 -87.8264 148° Southeast 303 349 9,200 3,098 Climbing Chicago Center
Sat 09:04:08 PM 41.6681 -87.7686 150° Southeast 307 353 12,200 2,016 Climbing Chicago Center
Sat 09:05:00 PM 40.8601 -87.4367 166° South  Level FlightAware Approximate
Sat 09:05:09 PM 41.5831 -87.6997 149° Southeast 357 411 13,300  Level Chicago Center
Sat 09:06:10 PM 41.4903 -87.6250 149° Southeast 384 442 15,600 2,115 Climbing Chicago Center
Sat 09:07:11 PM 41.3889 -87.5658 156° South 401 461 17,600 1,918 Climbing Chicago Center
Sat 09:08:12 PM 41.2825 -87.5483 173° South 386 444 19,500 1,869 Climbing Chicago Center
Sat 09:09:13 PM 41.1728 -87.5267 172° South 393 452 21,400 1,869 Climbing Chicago Center
Sat 09:10:14 PM 41.0617 -87.4964 168° South 403 464 23,300 1,659 Climbing Chicago Center
Sat 09:11:16 PM 40.9497 -87.4653 168° South 410 472 24,800 1,610 Climbing Chicago Center
Sat 09:12:17 PM 40.8114 -87.4300 169° South 420 483 26,600 1,475 Climbing Chicago Center
Sat 09:13:18 PM 40.6969 -87.4011 169° South 420 483 27,800 1,131 Climbing Chicago Center
Sat 09:14:19 PM 40.5806 -87.3692 168° South 425 489 28,900 1,426 Climbing Chicago Center
Sat 09:15:20 PM 40.4644 -87.3378 168° South 428 493 30,700 1,033 Climbing Chicago Center
Sat 09:16:21 PM 40.3567 -87.2469 147° Southeast 461 531 31,000 148 Climbing Chicago Center
Sat 09:17:22 PM 40.2525 -87.1433 143° Southeast 469 540 31,000  Level Chicago Center
Sat 09:18:23 PM 40.1894 -86.9786 117° Southeast 501 577 31,000  Level Chicago Center
Sat 09:19:24 PM 40.1264 -86.8092 116° Southeast 515 593 31,000  Level Chicago Center
Sat 09:20:24 PM 40.0622 -86.6389 116° Southeast 519 597 31,000  Level Indianapolis Center
Sat 09:21:25 PM 39.9989 -86.4686 116° Southeast 520 598 31,000  Level Indianapolis Center
Sat 09:22:26 PM 39.9344 -86.2964 116° Southeast 522 601 31,000  Level Indianapolis Center
Sat 09:23:27 PM 39.8694 -86.1222 116° Southeast 523 602 31,000  Level Indianapolis Center
Sat 09:24:28 PM 39.8042 -85.9511 116° Southeast 522 601 31,000  Level Indianapolis Center
Sat 09:25:28 PM 39.7392 -85.7811 116° Southeast 523 602 31,000  Level Indianapolis Center
Sat 09:26:29 PM 39.6758 -85.6125 116° Southeast 520 598 31,000  Level Indianapolis Center
Sat 09:27:30 PM 39.6106 -85.4461 117° Southeast 519 597 31,000  Level Indianapolis Center
Sat 09:28:31 PM 39.5461 -85.2783 116° Southeast 520 598 31,000  Level Indianapolis Center
Sat 09:29:31 PM 39.4806 -85.1133 117° Southeast 518 596 31,000  Level Indianapolis Center
Sat 09:30:32 PM 39.4164 -84.9486 117° Southeast 515 593 31,000 -49 Level Indianapolis Center
Sat 09:31:33 PM 39.3472 -84.7708 117° Southeast 514 592 30,900  Descending Indianapolis Center
Sat 09:32:33 PM 39.2814 -84.6050 117° Southeast 515 593 31,000 50 Climbing Indianapolis Center
Sat 09:33:34 PM 39.2161 -84.4400 117° Southeast 514 592 31,000  Level Indianapolis Center
Sat 09:34:35 PM 39.1506 -84.2775 117° Southeast 509 586 31,000  Level Indianapolis Center
Sat 09:35:36 PM 39.0856 -84.1136 117° Southeast 511 588 31,000  Level Indianapolis Center
Sat 09:36:36 PM 39.0186 -83.9531 118° Southeast 508 585 31,000  Level Indianapolis Center
Sat 09:37:37 PM 38.9533 -83.7894 117° Southeast 511 588 31,000  Level Indianapolis Center
Sat 09:38:38 PM 38.8875 -83.6297 118° Southeast 507 583 31,000  Level Indianapolis Center
Sat 09:39:38 PM 38.8219 -83.4714 118° Southeast 503 579 31,000  Level Indianapolis Center
Sat 09:40:39 PM 38.7453 -83.2850 118° Southeast 503 579 31,000  Level Indianapolis Center
Sat 09:41:40 PM 38.6803 -83.1244 117° Southeast 502 578 31,000  Level Indianapolis Center
Sat 09:42:41 PM 38.6150 -82.9683 118° Southeast 500 575 31,000  Level Indianapolis Center
Sat 09:43:41 PM 38.5486 -82.8106 118° Southeast 501 577 31,000  Level Indianapolis Center
Sat 09:44:42 PM 38.4819 -82.6531 118° Southeast 501 577 31,000  Level Indianapolis Center
Sat 09:45:43 PM 38.4144 -82.4953 119° Southeast 504 580 31,000  Level Indianapolis Center
Sat 09:46:43 PM 38.3489 -82.3403 118° Southeast 507 583 31,000  Level Indianapolis Center
Sat 09:47:44 PM 38.2817 -82.1828 118° Southeast 507 583 31,000  Level Indianapolis Center
Sat 09:48:45 PM 38.2156 -82.0278 118° Southeast 503 579 31,000  Level Indianapolis Center
Sat 09:49:46 PM 38.1467 -81.8708 119° Southeast 509 586 31,000  Level Indianapolis Center
Sat 09:50:46 PM 38.0767 -81.7097 119° Southeast 520 598 31,000  Level Indianapolis Center
Sat 09:51:47 PM 38.0061 -81.5492 119° Southeast 524 603 31,000 -344 Level Indianapolis Center
Sat 09:52:48 PM 37.9336 -81.3853 119° Southeast 533 613 30,300 -992 Descending Indianapolis Center
Sat 09:53:48 PM 37.8619 -81.2250 119° Southeast 525 604 29,000 -951 Descending Indianapolis Center
Sat 09:54:10 PM 37.8350 -81.1689 121° Southeast 521 600 29,000  Level Washington Center
Sat 09:55:12 PM 37.7650 -81.0114 119° Southeast 532 612 29,000  Level Washington Center
Sat 09:56:10 PM 37.6967 -80.8594 120° Southeast 520 598 29,000  Level Washington Center
Sat 09:57:11 PM 37.6219 -80.7050 121° Southeast 520 598 29,000  Level Washington Center
Sat 09:58:12 PM 37.5331 -80.5392 124° Southeast 515 593 29,000  Level Washington Center
Sat 09:59:10 PM 37.4494 -80.3922 126° Southeast 520 598 29,000 -661 Level Washington Center
Sat 10:00:10 PM 37.3653 -80.2458 126° Southeast 520 598 27,700 -1,377 Descending Washington Center
Sat 10:01:12 PM 37.2950 -80.1214 125° Southeast 502 578 26,200 -1,525 Descending Washington Center
Sat 10:02:12 PM 37.2094 -80.0094 134° Southeast 472 543 24,600 -1,563 Descending Washington Center
Sat 10:03:11 PM 37.1300 -79.9008 133° Southeast 435 501 23,100 -814 Descending Washington Center
Sat 10:04:10 PM 37.0425 -79.7839 133° Southeast 420 483 23,000 -843 Descending Washington Center
Sat 10:05:12 PM 36.9625 -79.6783 133° Southeast 420 483 21,400 -1,700 Descending Washington Center
Sat 10:06:10 PM 36.8886 -79.5808 133° Southeast 408 470 19,600 -2,067 Descending Washington Center
Sat 10:07:11 PM 36.8206 -79.4942 134° Southeast 396 456 17,300 -2,182 Descending Washington Center
Sat 10:08:11 PM 36.7467 -79.3947 133° Southeast 396 456 15,200 -2,115 Descending Washington Center
Sat 10:09:13 PM 36.6744 -79.2978 133° Southeast 391 450 13,000 -2,400 Descending Washington Center
Sat 10:09:31 PM 36.6506 -79.2631 131° Southeast 377 434 12,000 -2,690 Descending Washington Center
Sat 10:10:11 PM 36.5964 -79.1933 134° Southeast 384 442 10,400 -1,579 Descending Washington Center
Sat 10:10:47 PM 36.5500 -79.1367 136° Southeast 373 429 10,000 -393 Descending Washington Center
Sat 10:11:12 PM 36.5342 -79.1153 133° Southeast 374 430 10,000  Level Washington Center
Sat 10:11:48 PM 36.4819 -79.0458 133° Southeast 358 412 10,000  Level Washington Center
Sat 10:12:12 PM 36.4658 -79.0244 133° Southeast 362 417 10,000  Level Washington Center
Sat 10:12:49 PM 36.4153 -78.9603 134° Southeast 351 404 10,000  Level Washington Center
Sat 10:13:10 PM 36.3911 -78.9333 138° Southeast 354 407 10,000 -700 Level Washington Center
Sat 10:13:49 PM 36.3544 -78.8983 142° Southeast 262 302 9,300 -1,200 Descending Washington Center
Sat 10:14:10 PM 36.3428 -78.8694 117° Southeast 286 329 8,800 -1,556 Descending Washington Center
Sat 10:14:43 PM 36.3275 -78.8172 110° East 258 297 7,900 -1,600 Descending Washington Center
Sat 10:15:10 PM 36.3181 -78.7808 108° East 265 305 7,200 -1,645 Descending Washington Center
Sat 10:15:45 PM 36.3069 -78.7289 105° East 282 325 6,200 -1,500 Descending Washington Center
Sat 10:16:10 PM 36.2956 -78.6872 109° East 273 314 5,700 -1,322 Descending Washington Center
Sat 10:16:44 PM 36.2694 -78.6475 129° Southeast 269 310 4,900 -1,400 Descending Washington Center
Sat 10:17:10 PM 36.2403 -78.6411 170° South 240 276 4,300 -1,161 Descending Washington Center
Sat 10:17:46 PM 36.2050 -78.6397 178° South 226 260 3,700 -984 Descending Washington Center
Sat 10:18:11 PM 36.1778 -78.6414 183° South 212 244 3,300 -792 Descending Washington Center
Sat 10:18:39 PM 36.1442 -78.6478 189° South 232 267 3,000 -305 Descending Washington Center
Sat 10:19:10 PM 36.1233 -78.6494 184° South 218 251 3,000  Level Washington Center
Sat 10:19:40 PM 36.0919 -78.6533 186° South 176 203 3,000 -300 Level Washington Center
Sat 10:20:50 PM 36.0417 -78.6617 188° South 169 194 2,500 -372 Descending Washington Center
Sat 10:21:49 PM 35.9892 -78.6725 189° South 169 194 2,200 -159 Descending Washington Center
Sat 10:22:43 PM 35.9594 -78.6944 211° Southwest 142 163 2,200 -265 Level Washington Center
Sat 10:23:42 PM 35.9397 -78.7269 233° Southwest 106 122 1,700 -537 Descending Washington Center
Sat 10:24:46 PM 35.9161 -78.7517 220° Southwest 109 125 1,100 -563 Descending Washington Center
Sat 10:26:00 PM 35.8776 -78.7875 90° East  Level Estimated
Sat 10:33:00 PM 35.8776 -78.7875 90° East  Level Estimated
Sat 10:34:00 PM 35.8776 -78.7875 90° East  Level Estimated
Sat 10:35:00 PM 35.8776 -78.7875 90° East  Level Estimated

Login

Don't have an account? Register now (free) for customized features, flight alerts, and more!